createdAt,value
2019-03-31T00:00:06.509Z,21.90
2019-03-31T00:02:34.516Z,25.23
2019-03-31T00:05:02.572Z,26.90
2019-03-31T00:07:30.618Z,25.67
2019-03-31T00:09:58.532Z,22.90
2019-03-31T00:12:26.536Z,23.33
2019-03-31T00:14:54.542Z,23.93
2019-03-31T00:17:22.521Z,25.17
2019-03-31T00:19:50.513Z,24.07
2019-03-31T00:22:18.499Z,22.13
2019-03-31T00:24:46.496Z,21.33
2019-03-31T00:27:14.531Z,21.10
2019-03-31T00:29:42.612Z,22.93
2019-03-31T00:32:10.599Z,24.20
2019-03-31T00:34:38.519Z,26.60
2019-03-31T00:37:07.829Z,23.80
2019-03-31T00:39:36.129Z,24.00
2019-03-31T00:42:04.337Z,23.27
2019-03-31T00:44:32.367Z,23.17
2019-03-31T00:47:02.190Z,25.27
2019-03-31T00:49:30.536Z,25.60
2019-03-31T00:51:58.698Z,21.87
2019-03-31T00:54:27.905Z,23.73
2019-03-31T00:56:56.130Z,23.97
2019-03-31T00:59:24.198Z,20.80
2019-03-31T01:01:59.104Z,21.60
2019-03-31T01:04:29.493Z,24.73
2019-03-31T01:06:57.814Z,23.93
2019-03-31T01:09:31.817Z,20.27
2019-03-31T01:12:01.119Z,19.87
2019-03-31T01:14:29.775Z,21.20
2019-03-31T01:16:58.691Z,19.77
2019-03-31T01:19:27.266Z,21.73
2019-03-31T01:21:55.381Z,19.03
2019-03-31T01:24:23.674Z,19.33
2019-03-31T01:26:51.852Z,18.83
2019-03-31T01:29:20.299Z,18.13
2019-03-31T01:31:50.773Z,20.47
2019-03-31T01:34:18.954Z,20.23
2019-03-31T01:36:47.010Z,19.07
2019-03-31T01:39:15.306Z,21.67
2019-03-31T01:41:43.285Z,21.23
2019-03-31T01:44:11.225Z,20.90
2019-03-31T01:46:39.216Z,19.20
2019-03-31T01:49:07.349Z,21.13
2019-03-31T01:51:35.455Z,19.70
2019-03-31T01:54:03.882Z,25.27
2019-03-31T01:56:31.891Z,20.97
2019-03-31T01:58:59.866Z,27.47
2019-03-31T02:01:28.009Z,17.80
2019-03-31T02:03:56.130Z,17.97
2019-03-31T02:06:24.181Z,19.03
2019-03-31T02:08:52.177Z,19.30
2019-03-31T02:11:20.161Z,19.47
2019-03-31T02:13:48.157Z,21.13
2019-03-31T02:16:16.190Z,22.60
2019-03-31T02:18:44.141Z,18.57
2019-03-31T02:21:12.129Z,20.83
2019-03-31T02:23:40.199Z,19.07
2019-03-31T02:26:08.297Z,21.43
2019-03-31T02:28:36.423Z,17.47
2019-03-31T02:31:04.517Z,20.70
2019-03-31T02:33:32.498Z,24.07
2019-03-31T02:36:00.407Z,19.23
2019-03-31T02:38:28.539Z,20.13
2019-03-31T02:40:56.770Z,20.03
2019-03-31T02:43:24.709Z,21.27
2019-03-31T02:45:52.701Z,20.17
2019-03-31T02:48:20.740Z,20.40
2019-03-31T02:50:50.176Z,22.27
2019-03-31T02:53:19.808Z,17.73
2019-03-31T02:55:48.140Z,20.97
2019-03-31T02:58:17.407Z,20.17
2019-03-31T03:00:45.529Z,23.43
2019-03-31T03:03:16.060Z,20.23
2019-03-31T03:05:44.664Z,21.73
2019-03-31T03:08:13.604Z,30.00
2019-03-31T03:10:43.309Z,29.27
2019-03-31T03:13:13.859Z,26.20
2019-03-31T03:16:13.122Z,27.13
2019-03-31T03:18:41.350Z,23.63
2019-03-31T03:21:09.310Z,23.03
2019-03-31T03:23:37.289Z,25.37
2019-03-31T03:26:05.992Z,21.80
2019-03-31T03:28:34.550Z,18.80
2019-03-31T03:31:02.978Z,22.17
2019-03-31T03:33:31.236Z,23.70
2019-03-31T03:35:59.166Z,29.23
2019-03-31T03:38:27.273Z,28.47
2019-03-31T03:40:55.216Z,29.50
2019-03-31T03:43:23.261Z,27.90
2019-03-31T03:45:51.289Z,27.23
2019-03-31T03:48:19.285Z,29.50
2019-03-31T03:50:47.313Z,27.93
2019-03-31T03:53:15.399Z,29.53
2019-03-31T03:55:43.401Z,28.20
2019-03-31T03:58:11.325Z,30.80
2019-03-31T04:00:39.329Z,28.40
2019-03-31T04:03:07.318Z,36.10
2019-03-31T04:05:35.266Z,38.60
2019-03-31T04:08:03.288Z,35.10
2019-03-31T04:11:14.488Z,36.93
2019-03-31T04:13:42.554Z,37.60
2019-03-31T04:16:10.518Z,38.17
2019-03-31T04:18:38.505Z,36.17
2019-03-31T04:21:06.617Z,37.63
2019-03-31T04:23:34.554Z,39.50
2019-03-31T04:26:02.582Z,33.87
2019-03-31T04:28:30.667Z,36.90
2019-03-31T04:30:58.599Z,39.37
2019-03-31T04:33:26.770Z,38.57
2019-03-31T04:35:54.802Z,41.33
2019-03-31T04:38:22.738Z,37.53
2019-03-31T04:40:50.729Z,39.10
2019-03-31T04:43:18.727Z,38.77
2019-03-31T04:45:46.676Z,35.90
2019-03-31T04:48:14.708Z,33.87
2019-03-31T04:50:42.732Z,34.30
2019-03-31T04:53:10.736Z,33.93
2019-03-31T04:55:38.669Z,45.07
2019-03-31T04:58:06.730Z,34.27
2019-03-31T05:00:34.694Z,31.87
2019-03-31T05:03:02.822Z,34.23
2019-03-31T05:05:30.772Z,36.47
2019-03-31T05:07:58.757Z,37.53
2019-03-31T05:10:26.746Z,38.23
2019-03-31T05:12:54.782Z,35.07
2019-03-31T05:15:22.836Z,32.27
2019-03-31T05:17:50.876Z,37.93
2019-03-31T05:20:18.887Z,33.70
2019-03-31T05:22:46.929Z,30.93
2019-03-31T05:25:14.939Z,34.67
2019-03-31T05:27:42.959Z,35.20
2019-03-31T05:30:11.259Z,34.57
2019-03-31T05:32:39.205Z,40.07
2019-03-31T05:35:07.529Z,33.83
2019-03-31T05:37:49.976Z,50.67
2019-03-31T05:40:05.563Z,39.67
2019-03-31T05:42:33.541Z,37.83
2019-03-31T05:45:01.564Z,45.13
2019-03-31T05:47:29.578Z,40.20
2019-03-31T05:49:57.564Z,42.80
2019-03-31T05:52:25.600Z,39.70
2019-03-31T05:54:53.619Z,35.77
2019-03-31T05:57:21.669Z,62.80
2019-03-31T05:59:49.646Z,73.00
2019-03-31T06:02:17.618Z,49.07
2019-03-31T06:04:45.659Z,39.50
2019-03-31T06:07:13.663Z,35.27
2019-03-31T06:09:41.691Z,40.03
2019-03-31T06:12:09.623Z,41.20
2019-03-31T06:14:37.634Z,32.20
2019-03-31T06:17:05.744Z,35.10
2019-03-31T06:19:33.744Z,31.70
2019-03-31T06:22:01.958Z,32.73
2019-03-31T06:24:30.056Z,34.53
2019-03-31T06:26:58.116Z,29.37
2019-03-31T06:29:26.174Z,33.30
2019-03-31T06:31:54.198Z,28.40
2019-03-31T06:34:22.201Z,31.27
2019-03-31T06:36:50.211Z,32.43
2019-03-31T06:39:18.289Z,31.67
2019-03-31T06:41:46.752Z,30.67
2019-03-31T06:44:14.794Z,32.50
2019-03-31T06:46:43.249Z,26.47
2019-03-31T06:49:11.759Z,28.10
2019-03-31T06:51:39.699Z,28.23
2019-03-31T06:54:08.376Z,29.80
2019-03-31T06:56:36.601Z,33.57
2019-03-31T06:59:04.721Z,27.37
2019-03-31T07:01:32.950Z,31.90
2019-03-31T07:04:00.961Z,29.17
2019-03-31T07:06:28.999Z,29.93
2019-03-31T07:08:57.044Z,33.53
2019-03-31T07:11:25.047Z,34.67
2019-03-31T07:13:53.039Z,33.00
2019-03-31T07:16:21.027Z,29.90
2019-03-31T07:18:49.197Z,26.77
2019-03-31T07:21:17.162Z,31.83
2019-03-31T07:23:45.199Z,27.13
2019-03-31T07:26:13.287Z,24.87
2019-03-31T07:28:41.404Z,30.17
2019-03-31T07:31:09.596Z,30.13
2019-03-31T07:33:37.621Z,27.33
2019-03-31T07:36:05.657Z,23.83
2019-03-31T07:38:39.238Z,20.40
2019-03-31T07:41:12.553Z,21.97
2019-03-31T07:43:33.655Z,27.00
2019-03-31T07:46:01.648Z,20.17
2019-03-31T07:48:29.686Z,19.07
2019-03-31T07:50:57.642Z,22.97
2019-03-31T07:53:25.774Z,22.37
2019-03-31T07:55:53.853Z,19.83
2019-03-31T07:58:22.040Z,19.13
2019-03-31T08:00:50.049Z,20.33
2019-03-31T08:03:18.094Z,18.97
2019-03-31T08:05:46.106Z,17.70
2019-03-31T08:08:14.196Z,20.37
2019-03-31T08:10:43.609Z,20.20
2019-03-31T08:13:11.752Z,18.50
2019-03-31T08:15:39.776Z,19.17
2019-03-31T08:18:07.816Z,16.63
2019-03-31T08:20:35.846Z,14.53
2019-03-31T08:23:03.848Z,13.60
2019-03-31T08:25:31.853Z,16.67
2019-03-31T08:28:00.007Z,14.43
2019-03-31T08:30:28.264Z,14.43
2019-03-31T08:32:56.485Z,13.60
2019-03-31T08:35:24.552Z,10.30
2019-03-31T08:37:52.497Z,15.63
2019-03-31T08:40:20.729Z,16.93
2019-03-31T08:42:48.832Z,14.93
2019-03-31T08:45:17.127Z,15.77
2019-03-31T08:47:45.171Z,11.77
2019-03-31T08:50:14.020Z,10.60
2019-03-31T08:52:42.039Z,9.97
2019-03-31T08:55:11.464Z,11.60
2019-03-31T08:57:39.582Z,13.30
2019-03-31T09:00:13.535Z,9.27
2019-03-31T09:02:41.571Z,10.27
2019-03-31T09:05:10.123Z,11.80
2019-03-31T09:07:41.601Z,10.47
2019-03-31T09:10:09.691Z,10.57
2019-03-31T09:12:38.278Z,13.90
2019-03-31T09:15:09.412Z,11.47
2019-03-31T09:17:37.755Z,10.73
2019-03-31T09:20:06.795Z,9.63
2019-03-31T09:22:34.908Z,10.73
2019-03-31T09:25:03.153Z,14.23
2019-03-31T09:27:32.076Z,9.87
2019-03-31T09:30:00.522Z,10.60
2019-03-31T09:32:28.783Z,9.53
2019-03-31T09:34:56.946Z,8.40
2019-03-31T09:37:25.151Z,12.80
2019-03-31T09:39:53.249Z,18.33
2019-03-31T09:42:21.359Z,9.17
2019-03-31T09:44:49.504Z,9.30
2019-03-31T09:47:17.573Z,8.77
2019-03-31T09:49:45.641Z,9.00
2019-03-31T09:52:13.768Z,8.77
2019-03-31T09:54:41.788Z,9.00
2019-03-31T09:57:09.892Z,10.03
2019-03-31T09:59:37.871Z,12.77
2019-03-31T10:02:06.068Z,10.80
2019-03-31T10:04:34.129Z,10.37
2019-03-31T10:07:02.268Z,10.00
2019-03-31T10:09:30.714Z,8.50
2019-03-31T10:11:58.909Z,8.80
2019-03-31T10:14:27.079Z,8.47
2019-03-31T10:16:55.229Z,8.70
2019-03-31T10:19:23.426Z,9.83
2019-03-31T10:21:51.605Z,8.20
2019-03-31T10:24:19.572Z,8.33
2019-03-31T10:26:47.681Z,9.83
2019-03-31T10:29:15.824Z,12.10
2019-03-31T10:31:43.894Z,12.73
2019-03-31T10:34:12.079Z,9.17
2019-03-31T10:36:44.741Z,10.37
2019-03-31T10:39:10.602Z,10.33
2019-03-31T10:41:39.036Z,8.33
2019-03-31T10:44:07.257Z,8.13
2019-03-31T10:46:35.547Z,9.13
2019-03-31T10:49:03.796Z,8.50
2019-03-31T10:51:31.926Z,8.77
2019-03-31T10:54:00.190Z,8.83
2019-03-31T10:56:28.315Z,11.10
2019-03-31T10:58:57.192Z,10.20
2019-03-31T11:01:25.269Z,10.97
2019-03-31T11:03:53.239Z,10.83
2019-03-31T11:06:21.436Z,10.17
2019-03-31T11:08:49.864Z,10.10
2019-03-31T11:11:18.175Z,10.00
2019-03-31T11:13:46.215Z,9.57
2019-03-31T11:16:15.013Z,12.37
2019-03-31T11:18:43.104Z,9.23
2019-03-31T11:21:18.202Z,9.97
2019-03-31T11:23:46.484Z,10.20
2019-03-31T11:26:14.473Z,10.90
2019-03-31T11:28:42.706Z,10.37
2019-03-31T11:31:10.890Z,12.03
2019-03-31T11:33:38.878Z,12.67
2019-03-31T11:36:07.489Z,11.63
2019-03-31T11:38:37.219Z,11.30
2019-03-31T11:41:07.244Z,8.73
2019-03-31T11:43:35.368Z,10.03
2019-03-31T11:46:03.581Z,8.73
2019-03-31T11:48:32.565Z,9.13
2019-03-31T11:51:00.641Z,10.77
2019-03-31T11:53:28.680Z,10.93
2019-03-31T11:55:56.873Z,9.07
2019-03-31T11:58:25.068Z,8.60
2019-03-31T12:00:55.730Z,7.23
2019-03-31T12:03:23.855Z,10.30
2019-03-31T12:05:51.969Z,5.67
2019-03-31T12:08:20.038Z,7.40
2019-03-31T12:10:48.063Z,7.63
2019-03-31T12:13:16.046Z,7.30
2019-03-31T12:15:44.198Z,8.40
2019-03-31T12:18:12.381Z,6.87
2019-03-31T12:20:40.510Z,6.97
2019-03-31T12:23:08.555Z,7.73
2019-03-31T12:25:37.185Z,7.73
2019-03-31T12:28:05.365Z,8.57
2019-03-31T12:30:33.489Z,7.10
2019-03-31T12:33:01.462Z,7.07
2019-03-31T12:35:29.482Z,6.10
2019-03-31T12:37:57.603Z,6.77
2019-03-31T12:40:30.171Z,8.37
2019-03-31T12:42:58.358Z,6.53
2019-03-31T12:45:26.541Z,7.47
2019-03-31T12:47:54.552Z,7.53
2019-03-31T12:50:22.759Z,6.93
2019-03-31T12:52:51.272Z,6.33
2019-03-31T12:55:19.514Z,8.77
2019-03-31T12:57:47.629Z,8.73
2019-03-31T13:00:16.572Z,9.03
2019-03-31T13:02:45.805Z,9.60
2019-03-31T13:05:13.841Z,7.93
2019-03-31T13:07:55.450Z,7.00
2019-03-31T13:10:12.231Z,7.53
2019-03-31T13:12:40.272Z,6.80
2019-03-31T13:15:08.999Z,6.97
2019-03-31T13:17:37.279Z,7.77
2019-03-31T13:20:05.895Z,10.43
2019-03-31T13:22:33.969Z,9.17
2019-03-31T13:25:02.771Z,9.70
2019-03-31T13:27:31.001Z,11.57
2019-03-31T13:29:59.006Z,9.40
2019-03-31T13:32:27.149Z,11.00
2019-03-31T13:34:55.180Z,9.33
2019-03-31T13:37:23.193Z,10.77
2019-03-31T13:39:51.299Z,8.67
2019-03-31T13:42:19.261Z,9.53
2019-03-31T13:44:47.460Z,8.53
2019-03-31T13:47:15.551Z,7.77
2019-03-31T13:49:43.569Z,7.80
2019-03-31T13:52:11.701Z,7.40
2019-03-31T13:54:39.786Z,9.00
2019-03-31T13:57:08.832Z,7.33
2019-03-31T13:59:37.835Z,8.20
2019-03-31T14:02:06.362Z,8.67
2019-03-31T14:04:40.323Z,7.87
2019-03-31T14:07:04.652Z,7.03
2019-03-31T14:09:32.814Z,9.03
2019-03-31T14:12:01.634Z,9.10
2019-03-31T14:14:30.809Z,7.90
2019-03-31T14:16:58.830Z,7.30
2019-03-31T14:19:27.349Z,6.37
2019-03-31T14:21:55.475Z,8.03
2019-03-31T14:24:26.764Z,9.83
2019-03-31T14:26:53.539Z,10.50
2019-03-31T14:29:21.806Z,7.80
2019-03-31T14:31:51.994Z,15.73
2019-03-31T14:34:19.830Z,7.27
2019-03-31T14:36:47.954Z,7.50
2019-03-31T14:39:17.275Z,8.53
2019-03-31T14:41:45.471Z,8.07
2019-03-31T14:44:13.540Z,6.97
2019-03-31T14:46:41.748Z,7.27
2019-03-31T14:49:09.781Z,6.47
2019-03-31T14:51:37.811Z,10.60
2019-03-31T14:54:05.832Z,8.67
2019-03-31T14:56:33.870Z,6.67
2019-03-31T14:59:02.001Z,10.93
2019-03-31T15:01:30.108Z,11.07
2019-03-31T15:03:58.172Z,12.70
2019-03-31T15:06:26.286Z,8.50
2019-03-31T15:08:54.857Z,10.30
2019-03-31T15:11:23.008Z,8.10
2019-03-31T15:13:50.991Z,9.07
2019-03-31T15:16:19.140Z,8.27
2019-03-31T15:18:47.378Z,7.83
2019-03-31T15:21:15.426Z,8.20
2019-03-31T15:23:43.856Z,10.53
2019-03-31T15:26:11.904Z,6.57
2019-03-31T15:28:40.024Z,12.27
2019-03-31T15:31:08.305Z,8.93
2019-03-31T15:33:36.359Z,9.40
2019-03-31T15:36:04.532Z,9.13
2019-03-31T15:38:32.690Z,9.23
2019-03-31T15:41:00.670Z,8.33
2019-03-31T15:43:28.798Z,9.33
2019-03-31T15:45:56.969Z,7.90
2019-03-31T15:48:25.258Z,10.43
2019-03-31T15:50:53.432Z,13.27
2019-03-31T15:53:21.581Z,8.13
2019-03-31T15:55:49.821Z,9.10
2019-03-31T15:58:18.109Z,9.33
2019-03-31T16:00:46.180Z,7.90
2019-03-31T16:03:14.339Z,8.97
2019-03-31T16:05:42.493Z,9.00
2019-03-31T16:08:10.164Z,10.53
2019-03-31T16:10:37.731Z,10.33
2019-03-31T16:13:05.232Z,11.23
2019-03-31T16:15:33.037Z,11.23
2019-03-31T16:18:00.460Z,8.83
2019-03-31T16:20:27.952Z,11.00
2019-03-31T16:22:55.456Z,10.20
2019-03-31T16:25:31.886Z,6.83
2019-03-31T16:27:59.484Z,8.07
2019-03-31T16:30:27.571Z,8.53
2019-03-31T16:32:55.512Z,7.77
2019-03-31T16:35:23.192Z,8.93
2019-03-31T16:37:50.730Z,8.47
2019-03-31T16:40:18.237Z,10.87
2019-03-31T16:42:45.811Z,10.90
2019-03-31T16:45:13.753Z,10.80
2019-03-31T16:47:41.418Z,10.57
2019-03-31T16:50:10.020Z,8.23
2019-03-31T16:52:37.599Z,8.53
2019-03-31T16:55:05.618Z,10.83
2019-03-31T16:57:33.179Z,10.53
2019-03-31T17:00:00.765Z,8.67
2019-03-31T17:02:28.282Z,10.03
2019-03-31T17:04:55.804Z,9.20
2019-03-31T17:07:23.292Z,9.47
2019-03-31T17:09:56.261Z,8.63
2019-03-31T17:12:24.419Z,7.77
2019-03-31T17:14:52.295Z,9.73
2019-03-31T17:17:19.876Z,8.50
2019-03-31T17:19:47.347Z,10.63
2019-03-31T17:22:14.906Z,11.73
2019-03-31T17:24:42.702Z,10.37
2019-03-31T17:27:13.883Z,13.47
2019-03-31T17:29:40.064Z,11.53
2019-03-31T17:32:07.900Z,12.20
2019-03-31T17:34:35.960Z,12.40
2019-03-31T17:37:03.676Z,11.60
2019-03-31T17:39:31.211Z,10.70
2019-03-31T17:41:58.767Z,13.17
2019-03-31T17:44:26.235Z,11.63
2019-03-31T17:46:53.835Z,13.27
2019-03-31T17:49:21.279Z,12.97
2019-03-31T17:51:48.975Z,15.53
2019-03-31T17:54:16.537Z,15.17
2019-03-31T17:56:44.538Z,13.40
2019-03-31T17:59:11.922Z,16.47
2019-03-31T18:01:39.499Z,15.37
2019-03-31T18:04:07.046Z,17.13
2019-03-31T18:06:34.572Z,15.17
2019-03-31T18:09:04.151Z,15.50
2019-03-31T18:11:31.853Z,13.87
2019-03-31T18:13:59.498Z,18.53
2019-03-31T18:16:27.087Z,16.40
2019-03-31T18:18:54.633Z,17.87
2019-03-31T18:21:22.230Z,16.03
2019-03-31T18:23:49.858Z,17.23
2019-03-31T18:26:17.385Z,17.40
2019-03-31T18:28:44.828Z,18.27
2019-03-31T18:31:12.357Z,16.60
2019-03-31T18:33:40.747Z,18.90
2019-03-31T18:36:08.435Z,18.30
2019-03-31T18:38:35.934Z,20.87
2019-03-31T18:41:04.562Z,19.30
2019-03-31T18:43:32.078Z,20.37
2019-03-31T18:46:00.096Z,18.67
2019-03-31T18:48:27.579Z,18.10
2019-03-31T18:50:55.389Z,17.40
2019-03-31T18:53:35.965Z,17.70
2019-03-31T18:56:14.127Z,21.27
2019-03-31T18:58:58.015Z,19.77
2019-03-31T19:01:41.821Z,22.93
2019-03-31T19:04:35.209Z,23.00
2019-03-31T19:07:23.020Z,15.90
2019-03-31T19:09:59.693Z,19.70
2019-03-31T19:12:49.588Z,24.07
2019-03-31T19:15:42.805Z,19.27
2019-03-31T19:18:19.137Z,17.83
2019-03-31T19:21:10.476Z,16.57
2019-03-31T19:23:34.338Z,22.23
2019-03-31T19:26:22.811Z,19.87
2019-03-31T19:29:27.933Z,23.17
2019-03-31T19:32:14.060Z,20.93
2019-03-31T19:35:07.158Z,18.60
2019-03-31T19:38:05.966Z,18.77
2019-03-31T19:41:03.274Z,21.10
2019-03-31T19:43:39.195Z,17.83
2019-03-31T19:46:21.760Z,20.73
2019-03-31T19:49:11.604Z,19.50
2019-03-31T19:52:06.778Z,18.23
2019-03-31T19:54:44.252Z,21.80
2019-03-31T19:57:31.712Z,18.37
2019-03-31T20:00:30.692Z,16.27
2019-03-31T20:03:10.052Z,16.57
2019-03-31T20:05:55.624Z,19.40
2019-03-31T20:08:37.874Z,17.60
2019-03-31T20:11:33.853Z,18.93
2019-03-31T20:14:19.793Z,18.37
2019-03-31T20:17:13.148Z,16.40
2019-03-31T20:20:09.495Z,14.80
2019-03-31T20:22:48.788Z,21.10
2019-03-31T20:25:27.553Z,15.77
2019-03-31T20:28:23.801Z,19.87
2019-03-31T20:31:09.624Z,16.20
2019-03-31T20:33:52.568Z,13.97
2019-03-31T20:36:39.698Z,15.40
2019-03-31T20:39:56.101Z,18.57
2019-03-31T20:42:18.387Z,17.10
2019-03-31T20:44:45.862Z,16.70
2019-03-31T20:47:13.550Z,13.70
2019-03-31T20:49:41.021Z,20.23
2019-03-31T20:52:08.566Z,14.50
2019-03-31T20:54:36.266Z,16.77
2019-03-31T20:57:03.986Z,16.70
2019-03-31T20:59:31.574Z,18.30
2019-03-31T21:01:59.111Z,15.63
2019-03-31T21:04:26.766Z,15.30
2019-03-31T21:06:54.209Z,14.77
2019-03-31T21:09:21.736Z,13.67
2019-03-31T21:11:49.386Z,15.40
2019-03-31T21:14:17.167Z,16.93
2019-03-31T21:16:44.663Z,16.47
2019-03-31T21:19:12.223Z,14.23
2019-03-31T21:21:39.716Z,15.40
2019-03-31T21:24:07.240Z,17.23
2019-03-31T21:26:34.796Z,15.13
2019-03-31T21:29:02.326Z,16.40
2019-03-31T21:31:29.798Z,15.37
2019-03-31T21:33:57.273Z,16.67
2019-03-31T21:36:24.767Z,15.17
2019-03-31T21:38:52.217Z,17.93
2019-03-31T21:41:19.686Z,14.63
2019-03-31T21:43:47.158Z,13.90
2019-03-31T21:46:14.633Z,16.67
2019-03-31T21:48:42.205Z,15.70
2019-03-31T21:51:09.729Z,16.63
2019-03-31T21:53:37.311Z,18.10
2019-03-31T21:56:04.753Z,18.20
2019-03-31T21:58:32.351Z,17.73
2019-03-31T22:01:00.317Z,15.97
2019-03-31T22:03:27.814Z,15.80
2019-03-31T22:05:55.354Z,15.83
2019-03-31T22:08:22.962Z,14.47
2019-03-31T22:10:50.464Z,14.17
2019-03-31T22:13:18.088Z,17.53
2019-03-31T22:15:45.555Z,16.50
2019-03-31T22:18:13.225Z,15.37
2019-03-31T22:20:40.779Z,17.70
2019-03-31T22:23:08.218Z,16.23
2019-03-31T22:25:37.435Z,15.90
2019-03-31T22:28:04.886Z,16.63
2019-03-31T22:30:33.511Z,17.47
2019-03-31T22:33:01.153Z,17.70
2019-03-31T22:35:28.744Z,13.07
2019-03-31T22:37:56.485Z,18.00
2019-03-31T22:40:24.191Z,17.77
2019-03-31T22:42:51.666Z,15.70
2019-03-31T22:45:19.215Z,16.70
2019-03-31T22:47:46.668Z,15.33
2019-03-31T22:50:14.356Z,19.60
2019-03-31T22:52:42.003Z,15.47
2019-03-31T22:55:09.746Z,18.40
2019-03-31T22:57:37.177Z,14.80
2019-03-31T23:00:05.608Z,20.53
2019-03-31T23:02:33.163Z,23.73
2019-03-31T23:05:02.167Z,29.87
2019-03-31T23:07:29.748Z,40.27
2019-03-31T23:09:57.192Z,44.13
2019-03-31T23:12:24.598Z,41.57
2019-03-31T23:14:52.028Z,42.20
2019-03-31T23:17:19.819Z,40.10
2019-03-31T23:19:47.274Z,41.53
2019-03-31T23:22:14.689Z,39.50
2019-03-31T23:24:42.143Z,45.60
2019-03-31T23:27:09.594Z,49.03
2019-03-31T23:29:37.096Z,45.63
2019-03-31T23:32:04.525Z,51.47
2019-03-31T23:34:32.032Z,49.30
2019-03-31T23:36:59.409Z,47.80
2019-03-31T23:39:26.874Z,54.80
2019-03-31T23:41:54.385Z,55.83
2019-03-31T23:44:21.837Z,51.83
2019-03-31T23:46:49.283Z,56.53
2019-03-31T23:49:16.757Z,58.00
2019-03-31T23:51:44.246Z,51.20
2019-03-31T23:54:11.698Z,51.20
2019-03-31T23:56:39.218Z,44.77
2019-03-31T23:59:06.832Z,50.60
